createdAt,value
2023-01-02T07:16:25.412Z,39.10
2023-01-02T07:18:54.246Z,39.30
2023-01-02T07:21:23.174Z,39.40
2023-01-02T07:23:51.271Z,39.50
2023-01-02T07:26:19.588Z,39.50
2023-01-02T07:28:47.918Z,39.50
2023-01-02T07:31:18.228Z,39.60
2023-01-02T07:33:46.909Z,39.70
2023-01-02T07:36:18.762Z,39.70
2023-01-02T07:38:51.702Z,39.80
2023-01-02T07:41:22.359Z,40.10
2023-01-02T07:43:50.985Z,39.90
2023-01-02T07:46:20.284Z,40.00
2023-01-02T07:48:50.623Z,40.20
2023-01-02T07:51:26.321Z,40.30
2023-01-02T07:53:56.773Z,40.30
2023-01-02T07:56:26.271Z,40.40
2023-01-02T07:58:54.322Z,40.40
2023-01-02T08:01:22.524Z,40.40
2023-01-02T08:03:50.818Z,40.40
2023-01-02T08:06:20.232Z,40.30
2023-01-02T08:08:48.507Z,40.50
2023-01-02T08:11:21.478Z,40.40
2023-01-02T08:13:50.279Z,40.40
2023-01-02T08:16:21.373Z,40.30
2023-01-02T08:18:54.747Z,40.50
2023-01-02T08:21:25.010Z,40.30
2023-01-02T08:23:53.613Z,40.50
2023-01-02T08:26:21.862Z,40.40
2023-01-02T08:28:50.101Z,40.50
2023-01-02T08:31:21.002Z,40.50
2023-01-02T08:33:50.975Z,40.50
2023-01-02T08:36:19.760Z,40.50
2023-01-02T08:38:50.483Z,40.40
2023-01-02T08:41:39.761Z,40.50
2023-01-02T08:44:08.527Z,40.40
2023-01-02T08:46:42.355Z,40.50
2023-01-02T08:49:12.455Z,40.10
2023-01-02T08:51:40.608Z,40.30
2023-01-02T08:54:09.057Z,40.10
2023-01-02T08:56:37.872Z,40.10
2023-01-02T08:59:09.353Z,40.10
2023-01-02T09:01:38.538Z,40.00
2023-01-02T09:04:12.449Z,39.90
2023-01-02T09:06:42.403Z,39.90
2023-01-02T09:09:13.044Z,40.10
2023-01-02T09:11:46.700Z,39.60
2023-01-02T09:14:14.953Z,40.20
2023-01-02T09:16:43.432Z,40.40
2023-01-02T09:19:11.880Z,40.20
2023-01-02T09:21:39.802Z,40.40
2023-01-02T09:24:08.449Z,40.30
2023-01-02T09:26:43.607Z,40.30
2023-01-02T09:29:14.089Z,40.40
2023-01-02T09:31:42.519Z,40.40
2023-01-02T09:34:11.084Z,40.60
2023-01-02T09:36:39.466Z,40.70
2023-01-02T09:39:09.424Z,40.40
2023-01-02T09:41:39.158Z,40.50
2023-01-02T09:44:29.856Z,40.80
2023-01-02T09:47:08.489Z,40.60
2023-01-02T09:49:55.396Z,40.40
2023-01-02T09:52:31.594Z,40.50
2023-01-02T09:55:00.217Z,40.40
2023-01-02T09:57:28.101Z,40.90
2023-01-02T10:00:11.102Z,40.50
2023-01-02T10:03:08.381Z,40.40
2023-01-02T10:06:00.532Z,40.70
2023-01-02T10:09:00.074Z,40.50
2023-01-02T10:11:34.329Z,40.50
2023-01-02T10:14:18.495Z,40.60
2023-01-02T10:16:54.373Z,41.30
2023-01-02T10:19:40.891Z,40.70
2023-01-02T10:22:12.663Z,41.10
2023-01-02T10:25:26.511Z,41.20
2023-01-02T10:28:07.622Z,41.40
2023-01-02T10:30:46.839Z,41.60
2023-01-02T10:33:46.391Z,41.70
2023-01-02T10:36:26.705Z,42.20
2023-01-02T10:39:02.407Z,41.70
2023-01-02T10:41:32.329Z,41.50
2023-01-02T10:44:10.847Z,41.30
2023-01-02T10:46:41.833Z,41.50
2023-01-02T10:49:12.258Z,41.60
2023-01-02T10:51:46.416Z,41.30
2023-01-02T10:54:14.940Z,42.20
2023-01-02T10:56:51.328Z,41.30
2023-01-02T10:59:26.241Z,41.00
2023-01-02T11:01:59.780Z,41.20
2023-01-02T11:04:29.433Z,40.70
2023-01-02T11:07:03.605Z,41.60
2023-01-02T11:09:36.146Z,42.30
2023-01-02T11:12:12.922Z,42.70
2023-01-02T11:14:41.148Z,43.20
2023-01-02T11:17:20.105Z,43.70
2023-01-02T11:19:55.023Z,43.80
2023-01-02T11:22:32.620Z,44.10
2023-01-02T11:25:06.799Z,44.10
2023-01-02T11:27:44.849Z,44.30
2023-01-02T11:30:32.708Z,44.70
2023-01-02T11:33:14.498Z,44.30
2023-01-02T11:35:51.870Z,44.90
2023-01-02T11:38:29.858Z,45.10
2023-01-02T11:41:01.505Z,45.00
2023-01-02T11:43:52.808Z,45.00
2023-01-02T11:46:36.944Z,44.60
2023-01-02T11:49:06.907Z,44.60
2023-01-02T11:51:39.221Z,44.20
2023-01-02T11:54:19.529Z,44.00
2023-01-02T11:56:49.651Z,44.00
2023-01-02T11:59:28.822Z,43.80
2023-01-02T12:02:15.271Z,43.90
2023-01-02T12:04:43.585Z,43.70
2023-01-02T12:07:36.638Z,43.70
2023-01-02T12:10:16.544Z,43.70
2023-01-02T12:13:09.381Z,43.20
2023-01-02T12:15:52.274Z,43.60
2023-01-02T12:18:35.961Z,44.00
2023-01-02T12:21:24.095Z,44.20
2023-01-02T12:24:13.916Z,44.90
2023-01-02T12:26:57.177Z,44.70
2023-01-02T12:29:48.063Z,45.10
2023-01-02T12:32:17.011Z,44.50
2023-01-02T12:34:45.131Z,45.00
2023-01-02T12:37:39.259Z,44.90
2023-01-02T12:40:20.653Z,44.30
2023-01-02T12:42:49.290Z,44.80
2023-01-02T12:45:29.349Z,45.30
2023-01-02T12:48:26.822Z,45.40
2023-01-02T12:51:04.024Z,45.50
2023-01-02T12:53:45.154Z,44.50
2023-01-02T12:56:26.235Z,44.40
2023-01-02T12:59:06.166Z,44.30
2023-01-02T13:01:58.754Z,44.40
2023-01-02T13:05:01.276Z,44.50
2023-01-02T13:07:53.638Z,44.00
2023-01-02T13:10:25.013Z,43.50
2023-01-02T13:12:57.990Z,39.60
2023-01-02T13:15:31.075Z,37.80
2023-01-02T13:18:31.414Z,36.40
2023-01-02T13:21:21.462Z,36.90
2023-01-02T13:23:52.014Z,38.30
2023-01-02T13:26:23.758Z,38.70
2023-01-02T13:29:03.783Z,39.30
2023-01-02T13:31:46.520Z,39.80
2023-01-02T13:34:29.761Z,39.90
2023-01-02T13:37:20.252Z,40.40
2023-01-02T13:39:52.521Z,40.10
2023-01-02T13:42:46.821Z,40.80
2023-01-02T13:45:34.900Z,41.40
2023-01-02T13:48:09.148Z,41.60
2023-01-02T13:50:39.627Z,41.30
2023-01-02T13:53:10.731Z,41.40
2023-01-02T13:55:40.093Z,42.00
2023-01-02T13:58:18.040Z,41.90
2023-01-02T14:00:54.808Z,42.10
2023-01-02T14:03:23.892Z,41.90
2023-01-02T14:06:01.185Z,42.20
2023-01-02T14:08:40.714Z,42.30
2023-01-02T14:11:31.009Z,42.40
2023-01-02T14:14:30.729Z,42.40
2023-01-02T14:17:04.458Z,42.50
2023-01-02T14:19:32.540Z,42.70
2023-01-02T14:22:00.399Z,42.70
2023-01-02T14:24:49.434Z,42.80
2023-01-02T14:27:23.197Z,42.70
2023-01-02T14:29:53.430Z,42.90
2023-01-02T14:32:24.288Z,42.90
2023-01-02T14:34:57.172Z,43.10
2023-01-02T14:37:52.289Z,43.20
2023-01-02T14:40:23.348Z,43.40
2023-01-02T14:43:13.643Z,42.70
2023-01-02T14:45:47.933Z,40.40
2023-01-02T14:48:53.843Z,41.50
2023-01-02T14:51:28.237Z,41.90
2023-01-02T14:54:08.396Z,42.10
2023-01-02T14:56:38.929Z,42.20
2023-01-02T14:59:16.657Z,42.30
2023-01-02T15:01:54.872Z,42.40
2023-01-02T15:04:39.263Z,42.60
2023-01-02T15:07:27.799Z,42.60
2023-01-02T15:10:01.275Z,42.60
2023-01-02T15:12:50.823Z,43.50
2023-01-02T15:15:24.814Z,42.70
2023-01-02T15:17:55.023Z,42.90
2023-01-02T15:20:27.694Z,42.90
2023-01-02T15:22:57.397Z,42.90
2023-01-02T15:25:35.754Z,43.00
2023-01-02T15:28:04.531Z,42.90
2023-01-02T15:30:38.871Z,42.90
2023-01-02T15:33:24.691Z,43.00
2023-01-02T15:36:06.459Z,43.00
2023-01-02T15:38:34.782Z,43.00
2023-01-02T15:41:04.303Z,43.00
2023-01-02T15:43:53.249Z,43.10
2023-01-02T15:46:21.519Z,43.00
2023-01-02T15:48:50.219Z,43.10
2023-01-02T15:51:20.835Z,43.20
2023-01-02T15:54:14.667Z,43.20
2023-01-02T15:56:43.057Z,43.30
2023-01-02T15:59:26.889Z,43.10
2023-01-02T16:01:56.068Z,43.20
2023-01-02T16:04:34.511Z,43.30
2023-01-02T16:07:21.373Z,43.30
2023-01-02T16:09:55.196Z,42.60
2023-01-02T16:12:23.519Z,42.60
2023-01-02T16:14:55.867Z,42.70
2023-01-02T16:17:29.105Z,42.80
2023-01-02T16:20:00.219Z,42.60
2023-01-02T16:22:47.960Z,42.50
2023-01-02T16:25:18.910Z,42.50
2023-01-02T16:28:35.445Z,42.40
2023-01-02T16:31:08.707Z,42.60
2023-01-02T16:33:37.921Z,42.40
2023-01-02T16:36:05.978Z,42.30
2023-01-02T16:38:45.954Z,42.00
2023-01-02T16:41:35.415Z,42.20
2023-01-02T16:44:17.974Z,42.10
2023-01-02T16:46:49.454Z,42.00
2023-01-02T16:49:23.065Z,42.00
2023-01-02T16:51:53.957Z,42.20
2023-01-02T16:54:22.118Z,41.90
2023-01-02T16:56:50.951Z,42.00
2023-01-02T16:59:19.008Z,42.00
2023-01-02T17:01:47.311Z,41.80
2023-01-02T17:04:15.915Z,41.70
2023-01-02T17:06:44.101Z,41.70
2023-01-02T17:09:12.045Z,41.70
2023-01-02T17:12:00.061Z,41.70
2023-01-02T17:14:29.923Z,41.70
2023-01-02T17:16:59.830Z,41.80
2023-01-02T17:19:27.725Z,41.90
2023-01-02T17:21:55.824Z,41.90
2023-01-02T17:24:23.919Z,41.80
2023-01-02T17:26:52.089Z,41.90
2023-01-02T17:29:20.383Z,41.80
2023-01-02T17:31:48.719Z,42.00
2023-01-02T17:34:16.859Z,41.90
2023-01-02T17:36:45.566Z,41.70
2023-01-02T17:39:13.807Z,41.80
2023-01-02T17:41:41.840Z,41.60
2023-01-02T17:44:10.439Z,41.90
2023-01-02T17:47:09.242Z,41.90
2023-01-02T17:49:26.987Z,41.90
2023-01-02T17:51:55.033Z,42.00
2023-01-02T17:54:23.469Z,42.00
2023-01-02T17:56:51.568Z,41.90
2023-01-02T17:59:19.891Z,42.00
2023-01-02T18:01:48.446Z,41.80
2023-01-02T18:04:17.241Z,41.90
2023-01-02T18:06:45.186Z,41.90
2023-01-02T18:09:13.290Z,41.80
2023-01-02T18:11:41.550Z,41.80
2023-01-02T18:14:25.424Z,41.80
2023-01-02T18:16:57.354Z,41.80
2023-01-02T18:19:34.448Z,41.80
2023-01-02T18:22:12.240Z,41.90
2023-01-02T18:24:41.945Z,41.80
2023-01-02T18:27:22.235Z,41.90
2023-01-02T18:30:07.031Z,41.90
2023-01-02T18:32:38.286Z,41.90
2023-01-02T18:35:55.519Z,41.90
2023-01-02T18:38:37.083Z,41.90
2023-01-02T18:41:24.326Z,41.90
2023-01-02T18:43:57.266Z,42.00
2023-01-02T18:47:03.991Z,42.00
2023-01-02T18:49:27.359Z,42.00
2023-01-02T18:52:22.728Z,41.90
2023-01-02T18:55:00.399Z,41.90
2023-01-02T18:57:32.163Z,42.00
2023-01-02T19:00:22.778Z,42.00
2023-01-02T19:03:03.780Z,42.00
2023-01-02T19:05:46.481Z,42.00
2023-01-02T19:08:37.263Z,42.00
2023-01-02T19:11:36.700Z,41.90
2023-01-02T19:14:17.494Z,42.00
2023-01-02T19:16:46.108Z,42.00
2023-01-02T19:19:17.476Z,42.00
2023-01-02T19:21:45.906Z,42.00
2023-01-02T19:24:24.480Z,42.00
2023-01-02T19:26:58.112Z,42.00
2023-01-02T19:29:31.296Z,42.00
2023-01-02T19:32:03.919Z,42.00
2023-01-02T19:34:47.634Z,42.00
2023-01-02T19:37:39.306Z,42.00
2023-01-02T19:40:19.341Z,42.00
2023-01-02T19:42:49.864Z,42.00
2023-01-02T19:45:26.258Z,42.00
2023-01-02T19:47:54.491Z,42.00
2023-01-02T19:50:24.921Z,42.00
2023-01-02T19:52:53.490Z,42.00
2023-01-02T19:55:21.822Z,42.00
2023-01-02T19:57:49.922Z,42.00
2023-01-02T20:00:19.682Z,42.00
2023-01-02T20:02:49.950Z,42.10
2023-01-02T20:05:22.526Z,42.00
2023-01-02T20:07:52.885Z,42.10
2023-01-02T20:10:22.299Z,42.10
2023-01-02T20:12:50.647Z,42.10
2023-01-02T20:15:23.736Z,42.00
2023-01-02T20:17:53.340Z,42.10
2023-01-02T20:20:24.185Z,42.10
2023-01-02T20:22:52.719Z,42.10
2023-01-02T20:25:24.378Z,42.10
2023-01-02T20:27:54.196Z,42.10
2023-01-02T20:30:24.858Z,42.10
2023-01-02T20:32:55.230Z,42.10
2023-01-02T20:35:23.207Z,42.10
2023-01-02T20:37:51.427Z,42.10
2023-01-02T20:40:19.595Z,42.10
2023-01-02T20:42:47.706Z,42.10
2023-01-02T20:45:15.639Z,42.10
2023-01-02T20:47:43.659Z,42.10
2023-01-02T20:50:11.649Z,42.10
2023-01-02T20:52:39.873Z,42.10
2023-01-02T20:55:08.590Z,42.10
2023-01-02T20:57:36.758Z,42.10
2023-01-02T21:00:10.128Z,42.10
2023-01-02T21:02:38.505Z,42.10
2023-01-02T21:05:07.004Z,42.10
2023-01-02T21:07:35.206Z,42.10
2023-01-02T21:10:03.484Z,42.00
2023-01-02T21:12:50.067Z,42.00
2023-01-02T21:15:36.671Z,42.00
2023-01-02T21:18:04.852Z,42.00
2023-01-02T21:20:33.284Z,42.10
2023-01-02T21:23:01.461Z,42.10
2023-01-02T21:25:29.280Z,42.10
2023-01-02T21:27:57.312Z,42.10
2023-01-02T21:30:25.392Z,42.10
2023-01-02T21:32:53.779Z,42.10
2023-01-02T21:35:21.788Z,42.10
2023-01-02T21:37:52.335Z,42.20
2023-01-02T21:40:20.276Z,42.10
2023-01-02T21:42:48.503Z,42.10
2023-01-02T21:45:16.564Z,42.10
2023-01-02T21:47:44.752Z,42.10
2023-01-02T21:50:12.823Z,42.20
2023-01-02T21:52:40.992Z,42.20
2023-01-02T21:55:09.731Z,42.20
2023-01-02T21:58:11.443Z,42.10
2023-01-02T22:00:28.178Z,42.20
2023-01-02T22:02:56.901Z,42.20
2023-01-02T22:05:25.064Z,42.20
2023-01-02T22:07:53.302Z,42.20
2023-01-02T22:10:21.344Z,42.20
2023-01-02T22:12:49.390Z,42.20
2023-01-02T22:15:17.378Z,42.20
2023-01-02T22:17:45.461Z,42.20
2023-01-02T22:20:13.501Z,42.20
2023-01-02T22:22:41.902Z,42.20
2023-01-02T22:25:10.581Z,42.20
2023-01-02T22:27:38.781Z,42.20
2023-01-02T22:30:29.296Z,42.20
2023-01-02T22:32:56.229Z,42.20
2023-01-02T22:35:24.227Z,42.20
2023-01-02T22:37:52.552Z,42.20
2023-01-02T22:40:20.770Z,42.20
2023-01-02T22:43:06.153Z,42.20
2023-01-02T22:45:45.065Z,42.20
2023-01-02T22:48:38.258Z,42.30
2023-01-02T22:51:10.969Z,42.30
2023-01-02T22:53:40.384Z,42.30
2023-01-02T22:56:20.036Z,42.30
2023-01-02T22:58:49.402Z,42.30
2023-01-02T23:01:24.532Z,42.30
2023-01-02T23:03:52.569Z,42.20
2023-01-02T23:06:22.534Z,42.20
2023-01-02T23:08:51.442Z,42.20
2023-01-02T23:11:20.294Z,42.30
2023-01-02T23:13:56.081Z,42.30
2023-01-02T23:16:43.475Z,42.30
2023-01-02T23:19:14.918Z,42.30
2023-01-02T23:21:44.867Z,42.30
2023-01-02T23:24:14.911Z,42.30
2023-01-02T23:26:48.066Z,42.30
2023-01-02T23:29:17.196Z,42.30
2023-01-02T23:31:48.196Z,42.30
2023-01-02T23:34:20.079Z,42.30
2023-01-02T23:36:47.949Z,42.30
2023-01-02T23:39:19.729Z,42.30
2023-01-02T23:41:48.756Z,42.30
2023-01-02T23:44:17.604Z,42.30
2023-01-02T23:46:47.343Z,42.30
2023-01-02T23:49:16.489Z,42.30
2023-01-02T23:51:44.978Z,42.30
2023-01-02T23:54:15.673Z,42.30
2023-01-02T23:56:45.676Z,42.30
2023-01-02T23:59:24.679Z,42.30
